Saturday, November 17, 2018, 6:52 AM GMT
Back to Local

CYZX, Greenwood, N. S.

Location: , , Canada Lat: 44.983
Local Time: 6:52 AM GMT ( 6:52 GMT) Lon: -64.917
Time Zone: GMT Elev: 91 ft

Show me the last for .
Show Coded

Time T Td Feel RH Dir Speed Gust Alt SLP Vis Weather Sky Remarks
2018-11-17 06:00 34 32 24 93 280° 15 - 29.46 29.46 3 -SN SCT008 OVC016 None
2018-11-17 05:16 34 32 25 93 280° 12 - 29.43 29.43 5 -SN SCT007 OVC017 None
2018-11-17 05:00 34 32 26 93 280° 9 - 29.42 29.42 5 -SHSN SCT011 OVC016 None
2018-11-17 04:00 34 34 27 100 290° 8 - 29.38 29.38 7 -SHSN SCT011 OVC016 None
2018-11-17 03:00 34 32 29 93 330° 6 - 29.34 29.35 7 -SHSN BKN024 OVC040 None
2018-11-17 02:29 34 32 28 93 360° 7 - 29.32 29.32 7 SCT013 OVC018 None
2018-11-17 02:00 34 32 26 93 10° 9 - 29.32 29.32 4 BR OVC012 None
2018-11-17 01:00 34 32 25 93 30° 13 - 29.30 29.30 4 BR OVC012 None
2018-11-17 00:00 34 34 27 100 40° 8 - 29.27 29.27 3 -DZ BR BKN013 OVC017 None
2018-11-16 23:33 34 34 23 100 50° 13 18 29.28 29.29 3 -DZ BR SCT008 OVC013 None
2018-11-16 23:00 34 32 22 93 40° 6 20 29.28 29.28 2 -DZ BR BKN008 OVC013 None
2018-11-16 22:29 34 34 22 100 50° 13 20 29.28 29.28 3 -DZ BR BKN008 OVC012 None
2018-11-16 22:00 34 32 24 93 50° 15 - 29.27 29.27 4 -SN BR BKN007 OVC012 None
2018-11-16 21:00 32 30 19 92 50° 16 22 29.32 29.32 2 -SN BKN007 OVC016 Pressure falling rapidly
2018-11-16 20:29 34 30 23 86 50° 18 - 29.36 29.37 3 -SN BKN009 OVC016 Pressure falling rapidly
2018-11-16 20:00 34 32 23 93 50° 17 - 29.39 29.40 2 -RA BR BKN010 OVC015 None
2018-11-16 19:00 34 34 22 100 60° 15 22 29.40 29.41 2 -RA BR BKN010 OVC017 Pressure falling rapidly
2018-11-16 18:18 34 32 23 93 70° 18 - 29.44 29.44 3 -RA BR BKN010 OVC016 Pressure falling rapidly
2018-11-16 18:00 32 32 19 100 60° 16 25 29.47 29.48 2 -SN BR BKN012 OVC016 Pressure falling rapidly
2018-11-16 17:22 32 30 21 92 60° 16 - 29.56 29.56 2 -SN BR BKN011 OVC016 Pressure falling rapidly
2018-11-16 17:00 32 30 21 92 60° 16 - 29.59 29.59 2 -SN BR SCT012 OVC022 Pressure falling rapidly
2018-11-16 16:29 30 28 19 92 70° 16 - 29.66 29.67 2 -SN BR SCT012 OVC022 Pressure falling rapidly
2018-11-16 16:00 28 25 16 86 60° 17 - 29.71 29.72 4 -SNPL SCT011 OVC020 Pressure falling rapidly
2018-11-16 15:00 27 21 13 79 70° 20 - 29.84 29.84 5 -SNPL FEW011 BKN018 OVC027 Pressure falling rapidly
2018-11-16 14:44 27 21 13 79 70° 20 - 29.86 29.86 5 -SNPL FEW012 BKN019 OVC025 Pressure falling rapidly
2018-11-16 14:23 27 21 14 79 70° 16 - 29.90 29.90 3 -SNPL BKN013 OVC025 Pressure falling rapidly
2018-11-16 14:00 25 19 12 79 70° 15 - 29.95 29.96 1 -SNPL BKN012 OVC025 Pressure falling rapidly
2018-11-16 13:40 25 19 13 79 60° 13 - 29.98 29.99 2 -SN BKN012 OVC025 Pressure falling rapidly
2018-11-16 13:16 25 19 12 79 50° 15 - 30.01 30.01 1 -SN BKN007 OVC023 Pressure falling rapidly
2018-11-16 13:00 25 18 13 73 60° 14 - 30.04 30.04 3 -SN BKN007 OVC022 Pressure falling rapidly
2018-11-16 12:42 25 18 13 73 70° 13 - 30.06 30.07 1 -SN BKN006 OVC015 Pressure falling rapidly
2018-11-16 12:00 25 18 14 73 70° 12 - 30.12 30.13 0 -SN BR BKN005 OVC015 None
2018-11-16 11:33 27 12 19 53 100° 7 - 30.18 30.18 1 -SN BR BKN008 OVC016 None
2018-11-16 11:25 27 14 19 58 110° 7 - 30.16 30.17 3 -SN BR SCT009 OVC021 None
2018-11-16 11:00 27 14 18 58 90° 8 - 30.16 30.17 15 BKN060 OVC080 None
2018-11-16 10:00 27 14 17 58 80° 9 - 30.20 30.20 15 OVC080 None
2018-11-16 09:00 27 16 19 63 80° 7 - 30.24 30.24 15 OVC090 None
2018-11-16 08:00 27 16 17 63 100° 9 - 30.28 30.29 15 OVC110 None
2018-11-16 07:00 25 18 18 73 90° 6 - 30.32 30.33 15 OVC150 None

Support USWX by starting your Amazon purchase here.